Terminal Aerodrome Forecast
Issued by NWS Omaha/Valley, NE

Home | Current Version | Previous Version | Graphics & Text | Print | Product List | Glossary On
Versions: 1 2 3 4 5 6 7 8 9 10 11 12 13 14 15 16 17 18 19 20 21 22 23 24 25 26 27 28 29 30 31
000
FTUS43 KOAX 030525
TAFOFK
TAF
KOFK 030525Z 0306/0406 16012KT P6SM SCT030 OVC200
     FM030800 16010KT P6SM OVC025
      TEMPO 0308/0310 PL BKN012
     FM031000 19010KT 5SM BR OVC012
      TEMPO 0310/0312 -FZDZ BKN009
     FM031400 33012G20KT P6SM OVC020
     FM031700 34023G33KT P6SM BKN035
     FM040300 34011KT P6SM SCT040 BKN150=

USA.gov is the U.S. government's official web portal to all federal, state and local government web resources and services.